sensor_id;sensor_type;location;lat;lon;timestamp;temperature;humidity
38514;DHT22;24282;48.400;10.808;2024-03-02T00:00:10;6.50;90.00
38514;DHT22;24282;48.400;10.808;2024-03-02T00:02:45;6.50;90.00
38514;DHT22;24282;48.400;10.808;2024-03-02T00:05:16;6.50;90.00
38514;DHT22;24282;48.400;10.808;2024-03-02T00:07:43;6.50;90.00
38514;DHT22;24282;48.400;10.808;2024-03-02T00:10:11;6.50;90.00
38514;DHT22;24282;48.400;10.808;2024-03-02T00:12:38;6.50;90.00
38514;DHT22;24282;48.400;10.808;2024-03-02T00:15:17;6.50;90.00
38514;DHT22;24282;48.400;10.808;2024-03-02T00:17:54;6.50;90.00
38514;DHT22;24282;48.400;10.808;2024-03-02T00:20:24;6.50;90.00
38514;DHT22;24282;48.400;10.808;2024-03-02T00:23:16;6.50;90.00
38514;DHT22;24282;48.400;10.808;2024-03-02T00:28:19;6.50;90.00
38514;DHT22;24282;48.400;10.808;2024-03-02T00:33:20;6.50;89.90
38514;DHT22;24282;48.400;10.808;2024-03-02T00:35:47;6.50;89.90
38514;DHT22;24282;48.400;10.808;2024-03-02T00:38:14;6.50;89.90
38514;DHT22;24282;48.400;10.808;2024-03-02T00:40:41;6.50;89.90
38514;DHT22;24282;48.400;10.808;2024-03-02T00:43:32;6.40;89.90
38514;DHT22;24282;48.400;10.808;2024-03-02T00:46:03;6.40;89.90
38514;DHT22;24282;48.400;10.808;2024-03-02T00:48:29;6.40;89.90
38514;DHT22;24282;48.400;10.808;2024-03-02T00:50:57;6.40;89.80
38514;DHT22;24282;48.400;10.808;2024-03-02T00:53:24;6.40;89.80
38514;DHT22;24282;48.400;10.808;2024-03-02T00:55:51;6.30;89.80
38514;DHT22;24282;48.400;10.808;2024-03-02T00:58:17;6.40;89.80
38514;DHT22;24282;48.400;10.808;2024-03-02T01:00:43;6.30;89.80
38514;DHT22;24282;48.400;10.808;2024-03-02T01:03:08;6.30;89.80
38514;DHT22;24282;48.400;10.808;2024-03-02T01:05:36;6.30;89.80
38514;DHT22;24282;48.400;10.808;2024-03-02T01:08:02;6.30;89.80
38514;DHT22;24282;48.400;10.808;2024-03-02T01:10:27;6.30;89.80
38514;DHT22;24282;48.400;10.808;2024-03-02T01:12:53;6.20;89.70
38514;DHT22;24282;48.400;10.808;2024-03-02T01:15:19;6.30;89.80
38514;DHT22;24282;48.400;10.808;2024-03-02T01:17:45;6.30;89.70
38514;DHT22;24282;48.400;10.808;2024-03-02T01:20:11;6.30;89.70
38514;DHT22;24282;48.400;10.808;2024-03-02T01:22:37;6.20;89.70
38514;DHT22;24282;48.400;10.808;2024-03-02T01:25:03;6.20;89.70
38514;DHT22;24282;48.400;10.808;2024-03-02T01:27:29;6.20;89.70
38514;DHT22;24282;48.400;10.808;2024-03-02T01:29:55;6.20;89.70
38514;DHT22;24282;48.400;10.808;2024-03-02T01:32:20;6.20;89.60
38514;DHT22;24282;48.400;10.808;2024-03-02T01:34:46;6.20;89.60
38514;DHT22;24282;48.400;10.808;2024-03-02T01:37:12;6.20;89.60
38514;DHT22;24282;48.400;10.808;2024-03-02T01:39:38;6.20;89.60
38514;DHT22;24282;48.400;10.808;2024-03-02T01:42:04;6.20;89.60
38514;DHT22;24282;48.400;10.808;2024-03-02T01:44:30;6.10;89.50
38514;DHT22;24282;48.400;10.808;2024-03-02T01:46:56;6.10;89.50
38514;DHT22;24282;48.400;10.808;2024-03-02T01:49:21;6.10;89.50
38514;DHT22;24282;48.400;10.808;2024-03-02T01:51:48;6.10;89.50
38514;DHT22;24282;48.400;10.808;2024-03-02T01:54:13;6.10;89.50
38514;DHT22;24282;48.400;10.808;2024-03-02T01:56:39;6.10;89.50
38514;DHT22;24282;48.400;10.808;2024-03-02T01:59:05;6.10;89.50
38514;DHT22;24282;48.400;10.808;2024-03-02T02:01:31;6.10;89.50
38514;DHT22;24282;48.400;10.808;2024-03-02T02:03:57;6.10;89.50
38514;DHT22;24282;48.400;10.808;2024-03-02T02:06:23;6.10;89.50
38514;DHT22;24282;48.400;10.808;2024-03-02T02:08:48;6.00;89.50
38514;DHT22;24282;48.400;10.808;2024-03-02T02:11:15;6.00;89.50
38514;DHT22;24282;48.400;10.808;2024-03-02T02:13:41;6.00;89.50
38514;DHT22;24282;48.400;10.808;2024-03-02T02:16:08;6.00;89.60
38514;DHT22;24282;48.400;10.808;2024-03-02T02:18:34;6.00;89.60
38514;DHT22;24282;48.400;10.808;2024-03-02T02:21:00;6.00;89.60
38514;DHT22;24282;48.400;10.808;2024-03-02T02:23:26;6.00;89.60
38514;DHT22;24282;48.400;10.808;2024-03-02T02:25:52;6.00;89.60
38514;DHT22;24282;48.400;10.808;2024-03-02T02:28:17;6.00;89.60
38514;DHT22;24282;48.400;10.808;2024-03-02T02:30:43;6.00;89.70
38514;DHT22;24282;48.400;10.808;2024-03-02T02:33:09;6.00;89.70
38514;DHT22;24282;48.400;10.808;2024-03-02T02:35:35;6.10;89.80
38514;DHT22;24282;48.400;10.808;2024-03-02T02:38:00;6.10;89.80
38514;DHT22;24282;48.400;10.808;2024-03-02T02:40:27;6.10;89.80
38514;DHT22;24282;48.400;10.808;2024-03-02T02:42:56;6.00;89.80
38514;DHT22;24282;48.400;10.808;2024-03-02T02:45:22;6.10;89.80
38514;DHT22;24282;48.400;10.808;2024-03-02T02:47:48;6.10;89.70
38514;DHT22;24282;48.400;10.808;2024-03-02T02:50:14;6.00;89.70
38514;DHT22;24282;48.400;10.808;2024-03-02T02:52:40;6.00;89.70
38514;DHT22;24282;48.400;10.808;2024-03-02T02:55:08;6.00;89.70
38514;DHT22;24282;48.400;10.808;2024-03-02T02:57:35;6.00;89.80
38514;DHT22;24282;48.400;10.808;2024-03-02T03:00:09;6.00;89.80
38514;DHT22;24282;48.400;10.808;2024-03-02T03:02:37;6.10;89.60
38514;DHT22;24282;48.400;10.808;2024-03-02T03:05:03;6.10;89.40
38514;DHT22;24282;48.400;10.808;2024-03-02T03:07:29;6.00;89.40
38514;DHT22;24282;48.400;10.808;2024-03-02T03:09:55;6.00;89.40
38514;DHT22;24282;48.400;10.808;2024-03-02T03:12:20;6.00;89.40
38514;DHT22;24282;48.400;10.808;2024-03-02T03:14:46;6.00;89.40
38514;DHT22;24282;48.400;10.808;2024-03-02T03:17:12;6.00;89.50
38514;DHT22;24282;48.400;10.808;2024-03-02T03:19:38;6.00;89.50
38514;DHT22;24282;48.400;10.808;2024-03-02T03:22:04;6.00;89.60
38514;DHT22;24282;48.400;10.808;2024-03-02T03:24:30;6.00;89.40
38514;DHT22;24282;48.400;10.808;2024-03-02T03:26:55;6.00;89.50
38514;DHT22;24282;48.400;10.808;2024-03-02T03:29:21;6.00;89.60
38514;DHT22;24282;48.400;10.808;2024-03-02T03:31:47;6.00;89.60
38514;DHT22;24282;48.400;10.808;2024-03-02T03:34:12;6.00;89.70
38514;DHT22;24282;48.400;10.808;2024-03-02T03:36:41;5.90;89.70
38514;DHT22;24282;48.400;10.808;2024-03-02T03:39:07;6.00;89.70
38514;DHT22;24282;48.400;10.808;2024-03-02T03:41:33;5.90;89.70
38514;DHT22;24282;48.400;10.808;2024-03-02T03:43:59;5.90;89.70
38514;DHT22;24282;48.400;10.808;2024-03-02T03:46:24;6.00;89.80
38514;DHT22;24282;48.400;10.808;2024-03-02T03:48:50;6.00;89.70
38514;DHT22;24282;48.400;10.808;2024-03-02T03:51:16;6.00;89.30
38514;DHT22;24282;48.400;10.808;2024-03-02T03:53:41;6.00;89.30
38514;DHT22;24282;48.400;10.808;2024-03-02T03:56:07;5.90;89.40
38514;DHT22;24282;48.400;10.808;2024-03-02T03:58:33;5.80;89.40
38514;DHT22;24282;48.400;10.808;2024-03-02T04:00:58;5.80;89.50
38514;DHT22;24282;48.400;10.808;2024-03-02T04:03:24;5.80;89.50
38514;DHT22;24282;48.400;10.808;2024-03-02T04:05:51;5.90;89.60
38514;DHT22;24282;48.400;10.808;2024-03-02T04:08:16;5.90;89.50
38514;DHT22;24282;48.400;10.808;2024-03-02T04:10:42;5.90;89.50
38514;DHT22;24282;48.400;10.808;2024-03-02T04:13:08;5.90;89.40
38514;DHT22;24282;48.400;10.808;2024-03-02T04:15:33;5.90;89.30
38514;DHT22;24282;48.400;10.808;2024-03-02T04:17:59;5.80;89.20
38514;DHT22;24282;48.400;10.808;2024-03-02T04:20:25;5.80;89.20
38514;DHT22;24282;48.400;10.808;2024-03-02T04:22:51;5.80;89.20
38514;DHT22;24282;48.400;10.808;2024-03-02T04:25:16;5.80;89.20
38514;DHT22;24282;48.400;10.808;2024-03-02T04:27:42;5.70;89.20
38514;DHT22;24282;48.400;10.808;2024-03-02T04:30:08;5.80;89.20
38514;DHT22;24282;48.400;10.808;2024-03-02T04:32:34;5.70;89.20
38514;DHT22;24282;48.400;10.808;2024-03-02T04:35:01;5.80;89.20
38514;DHT22;24282;48.400;10.808;2024-03-02T04:37:27;5.80;89.30
38514;DHT22;24282;48.400;10.808;2024-03-02T04:39:53;5.80;89.30
38514;DHT22;24282;48.400;10.808;2024-03-02T04:42:19;5.70;89.30
38514;DHT22;24282;48.400;10.808;2024-03-02T04:44:44;5.80;89.40
38514;DHT22;24282;48.400;10.808;2024-03-02T04:47:10;5.80;89.40
38514;DHT22;24282;48.400;10.808;2024-03-02T04:49:36;5.70;89.40
38514;DHT22;24282;48.400;10.808;2024-03-02T04:52:02;5.70;89.40
38514;DHT22;24282;48.400;10.808;2024-03-02T04:54:28;5.80;89.40
38514;DHT22;24282;48.400;10.808;2024-03-02T04:56:53;5.70;89.40
38514;DHT22;24282;48.400;10.808;2024-03-02T04:59:20;5.70;89.40
38514;DHT22;24282;48.400;10.808;2024-03-02T05:01:45;5.70;89.50
38514;DHT22;24282;48.400;10.808;2024-03-02T05:04:12;5.70;89.50
38514;DHT22;24282;48.400;10.808;2024-03-02T05:06:39;5.60;89.40
38514;DHT22;24282;48.400;10.808;2024-03-02T05:09:08;5.70;89.40
38514;DHT22;24282;48.400;10.808;2024-03-02T05:11:34;5.60;89.30
38514;DHT22;24282;48.400;10.808;2024-03-02T05:14:06;5.60;89.20
38514;DHT22;24282;48.400;10.808;2024-03-02T05:16:35;5.50;89.10
38514;DHT22;24282;48.400;10.808;2024-03-02T05:19:02;5.50;89.00
38514;DHT22;24282;48.400;10.808;2024-03-02T05:21:28;5.50;89.00
38514;DHT22;24282;48.400;10.808;2024-03-02T05:23:53;5.50;88.90
38514;DHT22;24282;48.400;10.808;2024-03-02T05:26:19;5.50;88.80
38514;DHT22;24282;48.400;10.808;2024-03-02T05:28:45;5.40;88.80
38514;DHT22;24282;48.400;10.808;2024-03-02T05:31:11;5.40;88.70
38514;DHT22;24282;48.400;10.808;2024-03-02T05:33:40;5.40;88.60
38514;DHT22;24282;48.400;10.808;2024-03-02T05:36:06;5.30;88.50
38514;DHT22;24282;48.400;10.808;2024-03-02T05:38:34;5.30;88.40
38514;DHT22;24282;48.400;10.808;2024-03-02T05:41:00;5.30;88.30
38514;DHT22;24282;48.400;10.808;2024-03-02T05:43:26;5.20;88.30
38514;DHT22;24282;48.400;10.808;2024-03-02T05:45:52;5.20;88.30
38514;DHT22;24282;48.400;10.808;2024-03-02T05:48:17;5.20;88.20
38514;DHT22;24282;48.400;10.808;2024-03-02T05:50:43;5.10;88.20
38514;DHT22;24282;48.400;10.808;2024-03-02T05:53:09;5.10;88.10
38514;DHT22;24282;48.400;10.808;2024-03-02T05:55:35;5.10;88.00
38514;DHT22;24282;48.400;10.808;2024-03-02T05:58:01;5.10;87.90
38514;DHT22;24282;48.400;10.808;2024-03-02T06:00:32;5.00;87.80
38514;DHT22;24282;48.400;10.808;2024-03-02T06:02:58;5.00;87.80
38514;DHT22;24282;48.400;10.808;2024-03-02T06:05:24;5.00;87.80
38514;DHT22;24282;48.400;10.808;2024-03-02T06:07:50;5.00;87.80
38514;DHT22;24282;48.400;10.808;2024-03-02T06:10:16;5.00;87.90
38514;DHT22;24282;48.400;10.808;2024-03-02T06:12:43;5.00;87.90
38514;DHT22;24282;48.400;10.808;2024-03-02T06:15:09;5.00;87.90
38514;DHT22;24282;48.400;10.808;2024-03-02T06:17:35;5.00;88.00
38514;DHT22;24282;48.400;10.808;2024-03-02T06:20:01;4.90;88.00
38514;DHT22;24282;48.400;10.808;2024-03-02T06:22:27;4.90;88.10
38514;DHT22;24282;48.400;10.808;2024-03-02T06:24:53;4.90;88.10
38514;DHT22;24282;48.400;10.808;2024-03-02T06:27:19;4.90;88.10
38514;DHT22;24282;48.400;10.808;2024-03-02T06:29:45;5.00;88.10
38514;DHT22;24282;48.400;10.808;2024-03-02T06:32:10;4.90;88.20
38514;DHT22;24282;48.400;10.808;2024-03-02T06:34:36;5.00;88.30
38514;DHT22;24282;48.400;10.808;2024-03-02T06:37:02;5.00;88.50
38514;DHT22;24282;48.400;10.808;2024-03-02T06:39:28;5.00;88.60
38514;DHT22;24282;48.400;10.808;2024-03-02T06:41:53;5.00;88.60
38514;DHT22;24282;48.400;10.808;2024-03-02T06:44:19;5.00;88.70
38514;DHT22;24282;48.400;10.808;2024-03-02T06:46:45;5.10;88.70
38514;DHT22;24282;48.400;10.808;2024-03-02T06:49:10;5.10;88.80
38514;DHT22;24282;48.400;10.808;2024-03-02T06:51:36;5.20;88.90
38514;DHT22;24282;48.400;10.808;2024-03-02T06:54:02;5.30;89.10
38514;DHT22;24282;48.400;10.808;2024-03-02T06:56:28;5.30;89.30
38514;DHT22;24282;48.400;10.808;2024-03-02T06:58:53;5.40;89.30
38514;DHT22;24282;48.400;10.808;2024-03-02T07:01:19;5.40;89.30
38514;DHT22;24282;48.400;10.808;2024-03-02T07:03:47;5.40;89.40
38514;DHT22;24282;48.400;10.808;2024-03-02T07:06:14;5.40;89.40
38514;DHT22;24282;48.400;10.808;2024-03-02T07:08:40;5.50;89.40
38514;DHT22;24282;48.400;10.808;2024-03-02T07:11:05;5.50;89.40
38514;DHT22;24282;48.400;10.808;2024-03-02T07:13:31;5.50;89.40
38514;DHT22;24282;48.400;10.808;2024-03-02T07:15:57;5.50;89.40
38514;DHT22;24282;48.400;10.808;2024-03-02T07:18:25;5.50;89.50
38514;DHT22;24282;48.400;10.808;2024-03-02T07:20:51;5.60;89.60
38514;DHT22;24282;48.400;10.808;2024-03-02T07:23:16;5.70;89.60
38514;DHT22;24282;48.400;10.808;2024-03-02T07:25:42;5.60;89.70
38514;DHT22;24282;48.400;10.808;2024-03-02T07:28:08;5.70;89.70
38514;DHT22;24282;48.400;10.808;2024-03-02T07:30:33;5.80;89.80
38514;DHT22;24282;48.400;10.808;2024-03-02T07:32:59;5.80;89.90
38514;DHT22;24282;48.400;10.808;2024-03-02T07:35:25;5.90;89.90
38514;DHT22;24282;48.400;10.808;2024-03-02T07:37:54;5.90;90.00
38514;DHT22;24282;48.400;10.808;2024-03-02T07:40:20;5.90;90.00
38514;DHT22;24282;48.400;10.808;2024-03-02T07:42:46;6.00;90.00
38514;DHT22;24282;48.400;10.808;2024-03-02T07:45:12;6.00;89.90
38514;DHT22;24282;48.400;10.808;2024-03-02T07:47:38;6.00;89.90
38514;DHT22;24282;48.400;10.808;2024-03-02T07:50:04;6.10;89.80
38514;DHT22;24282;48.400;10.808;2024-03-02T07:52:32;6.10;89.90
38514;DHT22;24282;48.400;10.808;2024-03-02T07:54:58;6.20;89.80
38514;DHT22;24282;48.400;10.808;2024-03-02T07:57:24;6.20;89.90
38514;DHT22;24282;48.400;10.808;2024-03-02T07:59:50;6.20;90.00
38514;DHT22;24282;48.400;10.808;2024-03-02T08:02:16;6.30;90.10
38514;DHT22;24282;48.400;10.808;2024-03-02T08:04:42;6.30;90.10
38514;DHT22;24282;48.400;10.808;2024-03-02T08:07:08;6.30;90.00
38514;DHT22;24282;48.400;10.808;2024-03-02T08:09:34;6.40;90.00
38514;DHT22;24282;48.400;10.808;2024-03-02T08:12:00;6.40;90.00
38514;DHT22;24282;48.400;10.808;2024-03-02T08:14:26;6.50;90.00
38514;DHT22;24282;48.400;10.808;2024-03-02T08:16:52;6.50;90.10
38514;DHT22;24282;48.400;10.808;2024-03-02T08:19:17;6.60;90.10
38514;DHT22;24282;48.400;10.808;2024-03-02T08:21:44;6.70;90.00
38514;DHT22;24282;48.400;10.808;2024-03-02T08:24:09;6.70;90.00
38514;DHT22;24282;48.400;10.808;2024-03-02T08:26:35;6.80;89.90
38514;DHT22;24282;48.400;10.808;2024-03-02T08:29:01;6.80;89.80
38514;DHT22;24282;48.400;10.808;2024-03-02T08:31:29;6.80;89.70
38514;DHT22;24282;48.400;10.808;2024-03-02T08:33:55;6.90;89.60
38514;DHT22;24282;48.400;10.808;2024-03-02T08:36:22;6.90;89.50
38514;DHT22;24282;48.400;10.808;2024-03-02T08:38:49;7.00;89.50
38514;DHT22;24282;48.400;10.808;2024-03-02T08:41:15;7.00;89.40
38514;DHT22;24282;48.400;10.808;2024-03-02T08:43:42;7.00;89.50
38514;DHT22;24282;48.400;10.808;2024-03-02T08:46:08;7.10;89.50
38514;DHT22;24282;48.400;10.808;2024-03-02T08:48:34;7.20;89.40
38514;DHT22;24282;48.400;10.808;2024-03-02T08:51:00;7.20;89.30
38514;DHT22;24282;48.400;10.808;2024-03-02T08:53:26;7.30;89.30
38514;DHT22;24282;48.400;10.808;2024-03-02T08:55:52;7.40;89.30
38514;DHT22;24282;48.400;10.808;2024-03-02T08:58:17;7.50;89.50
38514;DHT22;24282;48.400;10.808;2024-03-02T09:00:43;7.60;89.30
38514;DHT22;24282;48.400;10.808;2024-03-02T09:03:09;7.80;88.90
38514;DHT22;24282;48.400;10.808;2024-03-02T09:05:35;8.00;88.70
38514;DHT22;24282;48.400;10.808;2024-03-02T09:08:01;8.10;88.40
38514;DHT22;24282;48.400;10.808;2024-03-02T09:10:29;8.30;87.90
38514;DHT22;24282;48.400;10.808;2024-03-02T09:12:54;8.50;87.10
38514;DHT22;24282;48.400;10.808;2024-03-02T09:15:20;8.50;86.60
38514;DHT22;24282;48.400;10.808;2024-03-02T09:17:46;8.60;86.60
38514;DHT22;24282;48.400;10.808;2024-03-02T09:20:12;8.80;86.40
38514;DHT22;24282;48.400;10.808;2024-03-02T09:22:39;8.80;85.70
38514;DHT22;24282;48.400;10.808;2024-03-02T09:25:05;8.80;85.20
38514;DHT22;24282;48.400;10.808;2024-03-02T09:27:37;8.80;83.90
38514;DHT22;24282;48.400;10.808;2024-03-02T09:30:07;8.90;83.80
38514;DHT22;24282;48.400;10.808;2024-03-02T09:32:33;8.90;84.10
38514;DHT22;24282;48.400;10.808;2024-03-02T09:34:59;9.00;84.00
38514;DHT22;24282;48.400;10.808;2024-03-02T09:37:24;9.20;84.30
38514;DHT22;24282;48.400;10.808;2024-03-02T09:39:50;9.30;83.00
38514;DHT22;24282;48.400;10.808;2024-03-02T09:42:17;9.40;83.00
38514;DHT22;24282;48.400;10.808;2024-03-02T09:44:43;9.40;83.00
38514;DHT22;24282;48.400;10.808;2024-03-02T09:47:09;9.40;82.80
38514;DHT22;24282;48.400;10.808;2024-03-02T09:49:35;9.50;82.20
38514;DHT22;24282;48.400;10.808;2024-03-02T09:52:03;9.50;82.20
38514;DHT22;24282;48.400;10.808;2024-03-02T09:54:30;9.50;82.60
38514;DHT22;24282;48.400;10.808;2024-03-02T09:56:55;9.50;82.80
38514;DHT22;24282;48.400;10.808;2024-03-02T09:59:21;9.50;83.00
38514;DHT22;24282;48.400;10.808;2024-03-02T10:04:26;9.60;82.70
38514;DHT22;24282;48.400;10.808;2024-03-02T10:07:09;9.50;82.70
38514;DHT22;24282;48.400;10.808;2024-03-02T10:09:36;9.60;82.70
38514;DHT22;24282;48.400;10.808;2024-03-02T10:12:04;9.60;82.10
38514;DHT22;24282;48.400;10.808;2024-03-02T10:14:30;9.50;81.80
38514;DHT22;24282;48.400;10.808;2024-03-02T10:17:05;9.60;82.00
38514;DHT22;24282;48.400;10.808;2024-03-02T10:19:31;9.60;82.50
38514;DHT22;24282;48.400;10.808;2024-03-02T10:22:01;9.70;82.80
38514;DHT22;24282;48.400;10.808;2024-03-02T10:24:42;9.70;82.70
38514;DHT22;24282;48.400;10.808;2024-03-02T10:27:22;9.70;82.50
38514;DHT22;24282;48.400;10.808;2024-03-02T10:29:49;9.80;80.40
38514;DHT22;24282;48.400;10.808;2024-03-02T10:32:16;9.90;79.60
38514;DHT22;24282;48.400;10.808;2024-03-02T10:34:44;9.90;78.20
38514;DHT22;24282;48.400;10.808;2024-03-02T10:37:11;9.90;78.00
38514;DHT22;24282;48.400;10.808;2024-03-02T10:39:37;9.90;78.60
38514;DHT22;24282;48.400;10.808;2024-03-02T10:42:06;10.00;78.50
38514;DHT22;24282;48.400;10.808;2024-03-02T10:44:33;10.00;79.00
38514;DHT22;24282;48.400;10.808;2024-03-02T10:47:04;10.10;77.90
38514;DHT22;24282;48.400;10.808;2024-03-02T10:49:31;10.10;78.30
38514;DHT22;24282;48.400;10.808;2024-03-02T10:52:00;10.10;79.20
38514;DHT22;24282;48.400;10.808;2024-03-02T10:54:26;10.20;78.80
38514;DHT22;24282;48.400;10.808;2024-03-02T10:56:55;10.30;78.30
38514;DHT22;24282;48.400;10.808;2024-03-02T10:59:33;10.30;78.30
38514;DHT22;24282;48.400;10.808;2024-03-02T11:02:01;10.30;78.20
38514;DHT22;24282;48.400;10.808;2024-03-02T11:04:28;10.40;77.20
38514;DHT22;24282;48.400;10.808;2024-03-02T11:07:04;10.40;78.20
38514;DHT22;24282;48.400;10.808;2024-03-02T11:09:35;10.50;78.50
38514;DHT22;24282;48.400;10.808;2024-03-02T11:12:15;10.70;78.60
38514;DHT22;24282;48.400;10.808;2024-03-02T11:14:44;10.70;78.20
38514;DHT22;24282;48.400;10.808;2024-03-02T11:17:11;10.80;78.00
38514;DHT22;24282;48.400;10.808;2024-03-02T11:19:39;10.90;77.00
38514;DHT22;24282;48.400;10.808;2024-03-02T11:22:06;10.90;76.40
38514;DHT22;24282;48.400;10.808;2024-03-02T11:24:32;11.00;76.20
38514;DHT22;24282;48.400;10.808;2024-03-02T11:27:03;11.10;77.60
38514;DHT22;24282;48.400;10.808;2024-03-02T11:32:22;11.20;76.80
38514;DHT22;24282;48.400;10.808;2024-03-02T11:34:51;11.30;76.60
38514;DHT22;24282;48.400;10.808;2024-03-02T11:37:18;11.30;76.00
38514;DHT22;24282;48.400;10.808;2024-03-02T11:39:46;11.30;75.90
38514;DHT22;24282;48.400;10.808;2024-03-02T11:42:13;11.40;76.10
38514;DHT22;24282;48.400;10.808;2024-03-02T11:44:47;11.40;76.00
38514;DHT22;24282;48.400;10.808;2024-03-02T11:47:17;11.40;74.80
38514;DHT22;24282;48.400;10.808;2024-03-02T11:49:48;11.50;75.10
38514;DHT22;24282;48.400;10.808;2024-03-02T11:52:14;11.50;75.90
38514;DHT22;24282;48.400;10.808;2024-03-02T11:54:42;11.50;75.00
38514;DHT22;24282;48.400;10.808;2024-03-02T11:57:18;11.50;74.50
38514;DHT22;24282;48.400;10.808;2024-03-02T11:59:48;11.50;73.80
38514;DHT22;24282;48.400;10.808;2024-03-02T12:02:17;11.60;74.60
38514;DHT22;24282;48.400;10.808;2024-03-02T12:04:43;11.60;74.50
38514;DHT22;24282;48.400;10.808;2024-03-02T12:07:10;11.70;75.60
38514;DHT22;24282;48.400;10.808;2024-03-02T12:09:36;11.80;75.00
38514;DHT22;24282;48.400;10.808;2024-03-02T12:12:07;11.80;74.60
38514;DHT22;24282;48.400;10.808;2024-03-02T12:14:34;11.90;74.50
38514;DHT22;24282;48.400;10.808;2024-03-02T12:17:00;12.10;73.60
38514;DHT22;24282;48.400;10.808;2024-03-02T12:19:27;12.20;73.70
38514;DHT22;24282;48.400;10.808;2024-03-02T12:21:59;12.40;73.30
38514;DHT22;24282;48.400;10.808;2024-03-02T12:24:27;12.50;72.80
38514;DHT22;24282;48.400;10.808;2024-03-02T12:26:54;12.70;71.30
38514;DHT22;24282;48.400;10.808;2024-03-02T12:29:20;12.80;69.80
38514;DHT22;24282;48.400;10.808;2024-03-02T12:31:50;12.90;68.70
38514;DHT22;24282;48.400;10.808;2024-03-02T12:34:18;12.90;68.40
38514;DHT22;24282;48.400;10.808;2024-03-02T12:36:47;12.90;69.80
38514;DHT22;24282;48.400;10.808;2024-03-02T12:39:21;12.90;69.30
38514;DHT22;24282;48.400;10.808;2024-03-02T12:41:49;13.00;70.00
38514;DHT22;24282;48.400;10.808;2024-03-02T12:44:17;13.10;69.50
38514;DHT22;24282;48.400;10.808;2024-03-02T12:46:44;13.20;69.40
38514;DHT22;24282;48.400;10.808;2024-03-02T12:49:12;13.30;69.70
38514;DHT22;24282;48.400;10.808;2024-03-02T12:51:39;13.40;70.00
38514;DHT22;24282;48.400;10.808;2024-03-02T12:54:09;13.50;69.70
38514;DHT22;24282;48.400;10.808;2024-03-02T12:56:40;13.50;69.20
38514;DHT22;24282;48.400;10.808;2024-03-02T12:59:24;13.50;69.20
38514;DHT22;24282;48.400;10.808;2024-03-02T13:01:55;13.50;68.80
38514;DHT22;24282;48.400;10.808;2024-03-02T13:04:28;13.40;68.60
38514;DHT22;24282;48.400;10.808;2024-03-02T13:06:55;13.50;68.20
38514;DHT22;24282;48.400;10.808;2024-03-02T13:09:24;13.40;68.70
38514;DHT22;24282;48.400;10.808;2024-03-02T13:11:50;13.40;68.40
38514;DHT22;24282;48.400;10.808;2024-03-02T13:14:16;13.40;68.90
38514;DHT22;24282;48.400;10.808;2024-03-02T13:16:42;13.40;68.00
38514;DHT22;24282;48.400;10.808;2024-03-02T13:19:09;13.30;67.80
38514;DHT22;24282;48.400;10.808;2024-03-02T13:21:35;13.30;68.00
38514;DHT22;24282;48.400;10.808;2024-03-02T13:24:01;13.30;68.90
38514;DHT22;24282;48.400;10.808;2024-03-02T13:26:27;13.20;68.50
38514;DHT22;24282;48.400;10.808;2024-03-02T13:28:53;13.20;67.60
38514;DHT22;24282;48.400;10.808;2024-03-02T13:31:18;13.20;68.00
38514;DHT22;24282;48.400;10.808;2024-03-02T13:33:44;13.30;67.80
38514;DHT22;24282;48.400;10.808;2024-03-02T13:36:10;13.30;67.20
38514;DHT22;24282;48.400;10.808;2024-03-02T13:38:36;13.30;67.50
38514;DHT22;24282;48.400;10.808;2024-03-02T13:41:01;13.30;67.60
38514;DHT22;24282;48.400;10.808;2024-03-02T13:43:27;13.20;68.40
38514;DHT22;24282;48.400;10.808;2024-03-02T13:45:53;13.30;68.70
38514;DHT22;24282;48.400;10.808;2024-03-02T13:48:22;13.20;67.90
38514;DHT22;24282;48.400;10.808;2024-03-02T13:50:48;13.20;68.20
38514;DHT22;24282;48.400;10.808;2024-03-02T13:53:14;13.20;67.90
38514;DHT22;24282;48.400;10.808;2024-03-02T13:55:40;13.20;68.40
38514;DHT22;24282;48.400;10.808;2024-03-02T13:58:07;13.20;67.90
38514;DHT22;24282;48.400;10.808;2024-03-02T14:00:33;13.20;68.10
38514;DHT22;24282;48.400;10.808;2024-03-02T14:02:59;13.20;68.00
38514;DHT22;24282;48.400;10.808;2024-03-02T14:05:25;13.30;68.70
38514;DHT22;24282;48.400;10.808;2024-03-02T14:07:50;13.30;68.00
38514;DHT22;24282;48.400;10.808;2024-03-02T14:10:16;13.30;68.10
38514;DHT22;24282;48.400;10.808;2024-03-02T14:12:43;13.30;68.50
38514;DHT22;24282;48.400;10.808;2024-03-02T14:15:09;13.30;68.90
38514;DHT22;24282;48.400;10.808;2024-03-02T14:17:34;13.30;68.10
38514;DHT22;24282;48.400;10.808;2024-03-02T14:20:00;13.30;68.80
38514;DHT22;24282;48.400;10.808;2024-03-02T14:22:26;13.20;68.80
38514;DHT22;24282;48.400;10.808;2024-03-02T14:24:52;13.20;69.10
38514;DHT22;24282;48.400;10.808;2024-03-02T14:27:17;13.10;69.60
38514;DHT22;24282;48.400;10.808;2024-03-02T14:29:44;13.20;69.20
38514;DHT22;24282;48.400;10.808;2024-03-02T14:32:10;13.20;70.10
38514;DHT22;24282;48.400;10.808;2024-03-02T14:34:35;13.20;69.50
38514;DHT22;24282;48.400;10.808;2024-03-02T14:37:01;13.20;69.60
38514;DHT22;24282;48.400;10.808;2024-03-02T14:39:28;13.10;67.40
38514;DHT22;24282;48.400;10.808;2024-03-02T14:41:54;13.20;67.80
38514;DHT22;24282;48.400;10.808;2024-03-02T14:44:21;13.10;68.00
38514;DHT22;24282;48.400;10.808;2024-03-02T14:46:47;13.10;67.90
38514;DHT22;24282;48.400;10.808;2024-03-02T14:49:13;13.10;67.70
38514;DHT22;24282;48.400;10.808;2024-03-02T14:51:39;13.10;67.40
38514;DHT22;24282;48.400;10.808;2024-03-02T14:54:05;13.10;67.40
38514;DHT22;24282;48.400;10.808;2024-03-02T14:56:31;13.10;67.90
38514;DHT22;24282;48.400;10.808;2024-03-02T14:58:56;13.10;68.30
38514;DHT22;24282;48.400;10.808;2024-03-02T15:01:22;13.10;68.60
38514;DHT22;24282;48.400;10.808;2024-03-02T15:03:52;13.00;68.90
38514;DHT22;24282;48.400;10.808;2024-03-02T15:06:18;13.10;68.90
38514;DHT22;24282;48.400;10.808;2024-03-02T15:08:44;13.10;68.40
38514;DHT22;24282;48.400;10.808;2024-03-02T15:11:12;13.10;67.60
38514;DHT22;24282;48.400;10.808;2024-03-02T15:13:38;13.10;67.80
38514;DHT22;24282;48.400;10.808;2024-03-02T15:16:04;13.00;68.00
38514;DHT22;24282;48.400;10.808;2024-03-02T15:18:30;13.10;67.80
38514;DHT22;24282;48.400;10.808;2024-03-02T15:20:56;13.10;67.30
38514;DHT22;24282;48.400;10.808;2024-03-02T15:23:22;13.10;67.40
38514;DHT22;24282;48.400;10.808;2024-03-02T15:25:47;13.20;67.50
38514;DHT22;24282;48.400;10.808;2024-03-02T15:28:13;13.00;67.80
38514;DHT22;24282;48.400;10.808;2024-03-02T15:30:39;13.00;68.30
38514;DHT22;24282;48.400;10.808;2024-03-02T15:33:05;12.90;68.80